Independence — WDD6659 — position and weather

sailwx.info

Track history (hours):
 
Tides and Currents Weather Stations Pressure Air Temp Water Temp Dewpoint Dewpoint Depression Visibility Wind Speed Wind Dir Waves Ship Positions

Independence

Owner: Sortwell, Inc. DBA AmNav Maritime Services, Oakland, CA. More information available from US FCC via Universal Licensing System and Coast Guard Vessel Documentation Center.

Last reported at 2016-Sep-28 12:33 UTC. Time now 2016-Sep-29 03:22 UTC.
Position N 33°44' W 118°17'.

; draft 4.9 m.

Type: Tug. MMSI: 367175860.

Date/timePositionNaut miles runAvg speedWind from/ knotsBaromVisibWave heightAir tempDewpointWater temp
2016-Sep-28 12:33N 33°44' W 118°17'0 0.0
2016-Sep-28 08:33N 33°44' W 118°17'0 0.0
2016-Sep-28 02:06N 33°44' W 118°17'1 2.7
2016-Sep-28 01:33N 33°45' W 118°16'1 0.7
2016-Sep-27 23:32N 33°44' W 118°17'2 0.1
2016-Sep-27 00:33N 33°46' W 118°17'0 0.1
2016-Sep-26 20:32N 33°46' W 118°16'2 0.1
2016-Sep-25 15:24N 33°44' W 118°17'4 1.1
2016-Sep-25 11:15N 33°44' W 118°11'4 6.0
2016-Sep-25 10:32N 33°43' W 118°16'0 0.1
2016-Sep-25 07:11N 33°44' W 118°17'0 0.0
2016-Sep-24 19:28N 33°44' W 118°17'0 0.0
2016-Sep-24 18:21N 33°44' W 118°17'0 0.0
2016-Sep-24 16:29N 33°44' W 118°17'2 1.1
2016-Sep-24 14:33N 33°46' W 118°17'0 0.0
2016-Sep-24 12:33N 33°46' W 118°17'0 0.0
2016-Sep-24 10:33N 33°46' W 118°17'0 0.0
2016-Sep-24 09:33N 33°46' W 118°17'2 0.4
2016-Sep-24 03:23N 33°44' W 118°17'0 0.0
2016-Sep-24 01:29N 33°44' W 118°17'0 0.0
2016-Sep-24 00:33N 33°44' W 118°17'  
2016-Sep-20 10:29N 33°45' W 118°13'1 0.6
2016-Sep-20 08:33N 33°45' W 118°12'0 0.0
2016-Sep-20 07:31N 33°45' W 118°12'0 0.0
2016-Sep-20 06:33N 33°45' W 118°12'0 0.0
2016-Sep-20 02:28N 33°45' W 118°12'1 0.4
2016-Sep-19 23:15N 33°43' W 118°11'3 0.5
2016-Sep-19 18:33N 33°43' W 118°14'2 1.1
2016-Sep-19 16:29N 33°45' W 118°12'0 0.0
2016-Sep-19 14:32N 33°44' W 118°12'0 0.0
2016-Sep-19 13:32N 33°44' W 118°12'1 0.7
2016-Sep-19 12:06N 33°43' W 118°12'0 0.2
2016-Sep-19 11:34N 33°43' W 118°12'4 2.0
2016-Sep-19 09:33N 33°44' W 118°17'0 0.0
2016-Sep-19 07:25N 33°44' W 118°17'0 0.0
2016-Sep-19 06:23N 33°44' W 118°17'0 0.0
2016-Sep-19 03:33N 33°44' W 118°17'0 0.0
2016-Sep-19 02:28N 33°44' W 118°17'0 0.0
2016-Sep-19 00:33N 33°44' W 118°17'0 0.0
2016-Sep-18 19:33N 33°44' W 118°17'0 0.0
2016-Sep-18 15:33N 33°44' W 118°17'0 0.0
2016-Sep-18 14:22N 33°44' W 118°17'  
Track history (hours):
 
Tides and Currents Weather Stations Pressure Air Temp Water Temp Dewpoint Dewpoint Depression Visibility Wind Speed Wind Dir Waves Ship Positions

Independence

Owner: Sortwell, Inc. DBA AmNav Maritime Services, Oakland, CA. More information available from US FCC via Universal Licensing System and Coast Guard Vessel Documentation Center.

Last reported at 2016-Sep-28 12:33 UTC. Time now 2016-Sep-29 03:22 UTC.
Position N 33°44' W 118°17'.

; draft 4.9 m.

Type: Tug. MMSI: 367175860.

Date/timePositionNaut miles runAvg speedWind from/ knotsBaromVisibWave heightAir tempDewpointWater temp
2016-Sep-28 12:33N 33°44' W 118°17'0 0.0
2016-Sep-28 08:33N 33°44' W 118°17'0 0.0
2016-Sep-28 02:06N 33°44' W 118°17'1 2.7
2016-Sep-28 01:33N 33°45' W 118°16'1 0.7
2016-Sep-27 23:32N 33°44' W 118°17'2 0.1
2016-Sep-27 00:33N 33°46' W 118°17'0 0.1
2016-Sep-26 20:32N 33°46' W 118°16'2 0.1
2016-Sep-25 15:24N 33°44' W 118°17'4 1.1
2016-Sep-25 11:15N 33°44' W 118°11'4 6.0
2016-Sep-25 10:32N 33°43' W 118°16'0 0.1
2016-Sep-25 07:11N 33°44' W 118°17'0 0.0
2016-Sep-24 19:28N 33°44' W 118°17'0 0.0
2016-Sep-24 18:21N 33°44' W 118°17'0 0.0
2016-Sep-24 16:29N 33°44' W 118°17'2 1.1
2016-Sep-24 14:33N 33°46' W 118°17'0 0.0
2016-Sep-24 12:33N 33°46' W 118°17'0 0.0
2016-Sep-24 10:33N 33°46' W 118°17'0 0.0
2016-Sep-24 09:33N 33°46' W 118°17'2 0.4
2016-Sep-24 03:23N 33°44' W 118°17'0 0.0
2016-Sep-24 01:29N 33°44' W 118°17'0 0.0
2016-Sep-24 00:33N 33°44' W 118°17'  
2016-Sep-20 10:29N 33°45' W 118°13'1 0.6
2016-Sep-20 08:33N 33°45' W 118°12'0 0.0
2016-Sep-20 07:31N 33°45' W 118°12'0 0.0
2016-Sep-20 06:33N 33°45' W 118°12'0 0.0
2016-Sep-20 02:28N 33°45' W 118°12'1 0.4
2016-Sep-19 23:15N 33°43' W 118°11'3 0.5
2016-Sep-19 18:33N 33°43' W 118°14'2 1.1
2016-Sep-19 16:29N 33°45' W 118°12'0 0.0
2016-Sep-19 14:32N 33°44' W 118°12'0 0.0
2016-Sep-19 13:32N 33°44' W 118°12'1 0.7
2016-Sep-19 12:06N 33°43' W 118°12'0 0.2
2016-Sep-19 11:34N 33°43' W 118°12'4 2.0
2016-Sep-19 09:33N 33°44' W 118°17'0 0.0
2016-Sep-19 07:25N 33°44' W 118°17'0 0.0
2016-Sep-19 06:23N 33°44' W 118°17'0 0.0
2016-Sep-19 03:33N 33°44' W 118°17'0 0.0
2016-Sep-19 02:28N 33°44' W 118°17'0 0.0
2016-Sep-19 00:33N 33°44' W 118°17'0 0.0
2016-Sep-18 19:33N 33°44' W 118°17'0 0.0
2016-Sep-18 15:33N 33°44' W 118°17'0 0.0
2016-Sep-18 14:22N 33°44' W 118°17'  

Dump ship's entire track history